createdAt,value
2018-06-07T00:00:59.978Z,12.93
2018-06-07T00:03:03.774Z,12.87
2018-06-07T00:05:07.543Z,12.60
2018-06-07T00:07:11.436Z,13.43
2018-06-07T00:09:15.458Z,12.37
2018-06-07T00:11:19.502Z,10.50
2018-06-07T00:13:23.487Z,11.00
2018-06-07T00:15:27.307Z,9.77
2018-06-07T00:17:31.063Z,8.43
2018-06-07T00:19:36.204Z,9.70
2018-06-07T00:21:40.261Z,8.90
2018-06-07T00:23:44.158Z,8.33
2018-06-07T00:25:48.035Z,9.57
2018-06-07T00:27:52.148Z,9.27
2018-06-07T00:29:56.032Z,9.60
2018-06-07T00:32:00.147Z,9.00
2018-06-07T00:34:05.494Z,8.13
2018-06-07T00:36:09.500Z,7.60
2018-06-07T00:38:13.421Z,8.30
2018-06-07T00:40:17.587Z,8.47
2018-06-07T00:42:21.533Z,7.57
2018-06-07T00:44:25.285Z,7.90
2018-06-07T00:46:29.073Z,7.60
2018-06-07T00:48:33.208Z,8.07
2018-06-07T00:50:36.773Z,8.20
2018-06-07T00:52:40.445Z,8.10
2018-06-07T00:54:44.314Z,7.87
2018-06-07T00:56:59.081Z,8.10
2018-06-07T00:59:03.183Z,7.63
2018-06-07T01:01:06.989Z,7.97
2018-06-07T01:03:10.735Z,7.80
2018-06-07T01:05:14.388Z,7.63
2018-06-07T01:07:18.327Z,7.33
2018-06-07T01:09:22.241Z,7.00
2018-06-07T01:11:26.125Z,7.70
2018-06-07T01:13:29.895Z,7.73
2018-06-07T01:15:33.694Z,7.93
2018-06-07T01:17:37.545Z,7.97
2018-06-07T01:19:41.401Z,8.10
2018-06-07T01:21:45.238Z,7.83
2018-06-07T01:23:48.943Z,7.00
2018-06-07T01:25:52.700Z,7.40
2018-06-07T01:27:56.551Z,7.33
2018-06-07T01:30:15.508Z,7.37
2018-06-07T01:33:34.108Z,7.30
2018-06-07T01:35:38.270Z,7.50
2018-06-07T01:37:51.901Z,6.83
2018-06-07T01:39:55.806Z,7.60
2018-06-07T01:41:59.657Z,7.33
2018-06-07T01:44:03.355Z,7.20
2018-06-07T01:46:07.244Z,7.43
2018-06-07T01:48:10.900Z,6.90
2018-06-07T01:50:14.655Z,7.60
2018-06-07T01:52:18.451Z,8.17
2018-06-07T01:54:22.300Z,8.37
2018-06-07T01:56:26.308Z,8.60
2018-06-07T01:58:30.173Z,8.17
2018-06-07T02:00:34.014Z,8.47
2018-06-07T02:02:37.783Z,8.57
2018-06-07T02:04:41.438Z,8.27
2018-06-07T02:06:45.016Z,8.40
2018-06-07T02:08:48.823Z,7.70
2018-06-07T02:10:52.662Z,8.40
2018-06-07T02:12:56.322Z,7.60
2018-06-07T02:15:00.444Z,7.90
2018-06-07T02:17:04.239Z,7.87
2018-06-07T02:19:07.948Z,7.70
2018-06-07T02:21:11.650Z,7.87
2018-06-07T02:23:15.286Z,7.97
2018-06-07T02:25:19.057Z,8.37
2018-06-07T02:27:22.731Z,7.70
2018-06-07T02:29:26.612Z,7.97
2018-06-07T02:31:30.310Z,7.67
2018-06-07T02:33:34.020Z,7.90
2018-06-07T02:35:37.712Z,8.33
2018-06-07T02:37:41.571Z,8.43
2018-06-07T02:39:45.284Z,8.33
2018-06-07T02:41:48.885Z,8.50
2018-06-07T02:43:52.580Z,8.23
2018-06-07T02:45:56.213Z,7.67
2018-06-07T02:47:59.905Z,7.77
2018-06-07T02:50:03.539Z,7.77
2018-06-07T02:52:07.194Z,7.70
2018-06-07T02:54:10.878Z,7.40
2018-06-07T02:56:14.823Z,7.83
2018-06-07T02:58:18.520Z,8.43
2018-06-07T03:00:22.298Z,7.20
2018-06-07T03:02:26.037Z,7.23
2018-06-07T03:04:29.658Z,7.73
2018-06-07T03:06:33.364Z,8.17
2018-06-07T03:08:37.227Z,7.43
2018-06-07T03:10:41.093Z,7.83
2018-06-07T03:12:44.880Z,7.37
2018-06-07T03:14:48.687Z,6.83
2018-06-07T03:16:52.389Z,6.87
2018-06-07T03:18:56.091Z,6.70
2018-06-07T03:20:59.811Z,7.10
2018-06-07T03:23:03.703Z,6.83
2018-06-07T03:25:07.540Z,6.97
2018-06-07T03:27:11.163Z,6.60
2018-06-07T03:29:14.860Z,7.37
2018-06-07T03:31:18.594Z,7.13
2018-06-07T03:33:22.297Z,6.90
2018-06-07T03:35:25.895Z,6.67
2018-06-07T03:37:29.491Z,6.97
2018-06-07T03:39:33.186Z,7.07
2018-06-07T03:41:36.818Z,6.37
2018-06-07T03:43:41.587Z,7.27
2018-06-07T03:45:45.285Z,6.77
2018-06-07T03:47:49.005Z,6.43
2018-06-07T03:49:52.608Z,6.93
2018-06-07T03:51:56.207Z,6.83
2018-06-07T03:53:59.929Z,7.00
2018-06-07T03:56:03.707Z,6.53
2018-06-07T03:58:07.526Z,7.33
2018-06-07T04:00:11.212Z,5.80
2018-06-07T04:02:15.370Z,6.97
2018-06-07T04:04:19.148Z,6.17
2018-06-07T04:06:22.841Z,6.70
2018-06-07T04:08:26.485Z,6.70
2018-06-07T04:10:30.157Z,6.77
2018-06-07T04:12:33.918Z,7.37
2018-06-07T04:14:37.763Z,6.93
2018-06-07T04:16:41.413Z,7.40
2018-06-07T04:18:45.060Z,6.93
2018-06-07T04:20:48.714Z,6.73
2018-06-07T04:22:52.415Z,6.90
2018-06-07T04:24:56.051Z,6.80
2018-06-07T04:26:59.638Z,7.47
2018-06-07T04:29:03.209Z,6.43
2018-06-07T04:31:06.787Z,7.30
2018-06-07T04:33:10.430Z,7.30
2018-06-07T04:35:13.928Z,7.67
2018-06-07T04:37:17.454Z,7.83
2018-06-07T04:39:21.014Z,7.63
2018-06-07T04:41:24.615Z,6.40
2018-06-07T04:43:28.269Z,7.17
2018-06-07T04:45:31.976Z,7.17
2018-06-07T04:49:25.164Z,6.87
2018-06-07T04:51:28.767Z,6.77
2018-06-07T04:53:39.024Z,6.70
2018-06-07T04:55:42.661Z,6.67
2018-06-07T04:57:46.316Z,7.00
2018-06-07T04:59:49.918Z,6.20
2018-06-07T05:01:53.568Z,6.00
2018-06-07T05:03:57.551Z,6.53
2018-06-07T05:06:01.219Z,6.27
2018-06-07T05:08:04.999Z,6.37
2018-06-07T05:10:08.686Z,6.30
2018-06-07T05:12:12.268Z,6.00
2018-06-07T05:14:15.845Z,6.33
2018-06-07T05:16:19.510Z,5.80
2018-06-07T05:18:23.063Z,6.30
2018-06-07T05:20:26.575Z,5.67
2018-06-07T05:22:30.250Z,4.97
2018-06-07T05:24:33.962Z,5.93
2018-06-07T05:26:37.602Z,5.50
2018-06-07T05:28:41.194Z,5.93
2018-06-07T05:30:44.753Z,5.20
2018-06-07T05:32:48.424Z,5.10
2018-06-07T05:34:52.106Z,5.20
2018-06-07T05:36:55.964Z,5.07
2018-06-07T05:38:59.701Z,5.27
2018-06-07T05:41:03.555Z,6.17
2018-06-07T05:43:07.162Z,5.17
2018-06-07T05:45:11.580Z,5.17
2018-06-07T05:47:15.290Z,5.47
2018-06-07T05:49:18.842Z,5.47
2018-06-07T05:51:22.539Z,5.40
2018-06-07T05:53:26.244Z,5.53
2018-06-07T05:55:29.952Z,5.47
2018-06-07T05:57:34.681Z,5.33
2018-06-07T05:59:38.692Z,5.33
2018-06-07T06:01:42.465Z,5.37
2018-06-07T06:03:46.271Z,4.83
2018-06-07T06:05:50.194Z,4.83
2018-06-07T06:07:53.935Z,4.53
2018-06-07T06:09:57.785Z,5.63
2018-06-07T06:12:01.480Z,5.53
2018-06-07T06:14:05.715Z,5.30
2018-06-07T06:16:09.863Z,5.57
2018-06-07T06:18:13.800Z,5.90
2018-06-07T06:20:18.138Z,5.27
2018-06-07T06:22:21.901Z,5.30
2018-06-07T06:24:26.338Z,5.50
2018-06-07T06:26:30.482Z,5.63
2018-06-07T06:28:34.185Z,5.07
2018-06-07T06:30:38.071Z,4.87
2018-06-07T06:32:41.799Z,4.97
2018-06-07T06:34:45.513Z,5.10
2018-06-07T06:36:49.209Z,4.63
2018-06-07T06:38:53.588Z,4.70
2018-06-07T06:40:57.398Z,5.50
2018-06-07T06:43:01.700Z,5.00
2018-06-07T06:45:05.778Z,5.10
2018-06-07T06:47:10.197Z,5.03
2018-06-07T06:49:14.195Z,4.80
2018-06-07T06:51:18.344Z,4.50
2018-06-07T06:53:23.218Z,4.77
2018-06-07T06:55:27.168Z,4.80
2018-06-07T06:57:32.020Z,3.97
2018-06-07T06:59:35.934Z,4.33
2018-06-07T07:01:39.640Z,4.00
2018-06-07T07:03:43.926Z,3.60
2018-06-07T07:05:47.693Z,4.10
2018-06-07T07:07:51.749Z,4.20
2018-06-07T07:09:55.381Z,3.40
2018-06-07T07:11:59.241Z,3.80
2018-06-07T07:14:03.038Z,3.93
2018-06-07T07:16:07.541Z,3.97
2018-06-07T07:18:14.284Z,4.00
2018-06-07T07:20:19.966Z,3.80
2018-06-07T07:22:24.119Z,3.77
2018-06-07T07:24:28.000Z,3.97
2018-06-07T07:26:31.789Z,3.33
2018-06-07T07:28:36.410Z,2.80
2018-06-07T07:30:40.730Z,2.97
2018-06-07T07:32:46.689Z,3.20
2018-06-07T07:34:50.629Z,3.20
2018-06-07T07:36:54.684Z,3.60
2018-06-07T07:38:59.477Z,3.93
2018-06-07T07:41:03.263Z,3.90
2018-06-07T07:43:13.375Z,3.87
2018-06-07T07:45:18.050Z,4.30
2018-06-07T07:47:21.980Z,3.80
2018-06-07T07:49:25.671Z,4.43
2018-06-07T07:51:29.541Z,4.80
2018-06-07T07:53:33.201Z,3.60
2018-06-07T07:55:36.957Z,4.73
2018-06-07T07:57:41.122Z,4.63
2018-06-07T07:59:47.603Z,3.60
2018-06-07T08:01:58.483Z,4.20
2018-06-07T08:04:02.631Z,4.43
2018-06-07T08:06:07.853Z,4.07
2018-06-07T08:08:11.825Z,3.70
2018-06-07T08:10:15.874Z,4.13
2018-06-07T08:12:20.161Z,4.63
2018-06-07T08:14:25.181Z,4.00
2018-06-07T08:16:30.989Z,4.93
2018-06-07T08:18:35.002Z,4.83
2018-06-07T08:20:39.813Z,4.80
2018-06-07T08:22:45.328Z,4.50
2018-06-07T08:24:50.885Z,4.70
2018-06-07T08:26:56.140Z,4.70
2018-06-07T08:29:01.456Z,5.10
2018-06-07T08:31:12.246Z,4.90
2018-06-07T08:33:16.676Z,5.23
2018-06-07T08:35:20.871Z,5.23
2018-06-07T08:37:24.677Z,5.50
2018-06-07T08:39:28.479Z,4.83
2018-06-07T08:41:32.527Z,4.90
2018-06-07T08:43:36.532Z,4.63
2018-06-07T08:45:41.436Z,5.20
2018-06-07T08:47:45.117Z,5.53
2018-06-07T08:49:49.176Z,5.67
2018-06-07T08:51:54.572Z,5.70
2018-06-07T08:54:00.839Z,6.47
2018-06-07T08:56:07.284Z,6.60
2018-06-07T08:58:12.371Z,6.30
2018-06-07T09:00:22.679Z,8.10
2018-06-07T09:02:26.534Z,8.20
2018-06-07T09:04:31.146Z,8.47
2018-06-07T09:06:36.060Z,8.43
2018-06-07T09:08:39.912Z,8.47
2018-06-07T09:10:43.652Z,9.33
2018-06-07T09:12:48.398Z,8.87
2018-06-07T09:14:53.229Z,8.73
2018-06-07T09:16:57.856Z,8.10
2018-06-07T09:19:02.400Z,8.30
2018-06-07T09:21:06.248Z,8.63
2018-06-07T09:23:11.029Z,8.70
2018-06-07T09:25:15.097Z,9.30
2018-06-07T09:27:19.661Z,8.87
2018-06-07T09:29:23.408Z,8.43
2018-06-07T09:31:28.116Z,10.43
2018-06-07T09:33:33.696Z,12.90
2018-06-07T09:35:38.078Z,13.60
2018-06-07T09:37:43.848Z,13.90
2018-06-07T09:39:52.153Z,9.90
2018-06-07T09:41:56.857Z,9.87
2018-06-07T09:44:00.581Z,9.47
2018-06-07T09:46:06.929Z,8.90
2018-06-07T09:48:11.402Z,8.47
2018-06-07T09:50:15.532Z,8.90
2018-06-07T09:52:19.151Z,8.80
2018-06-07T09:54:22.776Z,9.50
2018-06-07T09:56:26.958Z,7.73
2018-06-07T09:58:38.321Z,7.83
2018-06-07T10:00:43.125Z,8.30
2018-06-07T10:02:46.770Z,8.40
2018-06-07T10:04:50.373Z,8.07
2018-06-07T10:06:53.891Z,7.63
2018-06-07T10:08:57.427Z,8.50
2018-06-07T10:11:00.976Z,8.33
2018-06-07T10:13:05.009Z,7.87
2018-06-07T10:15:08.632Z,7.87
2018-06-07T10:17:12.372Z,7.67
2018-06-07T10:19:15.980Z,8.27
2018-06-07T10:21:19.610Z,6.67
2018-06-07T10:23:24.391Z,6.80
2018-06-07T10:25:27.969Z,7.20
2018-06-07T10:27:31.615Z,7.27
2018-06-07T10:29:35.183Z,6.40
2018-06-07T10:31:39.271Z,5.97
2018-06-07T10:33:43.040Z,6.43
2018-06-07T10:35:46.571Z,6.33
2018-06-07T10:37:50.288Z,6.13
2018-06-07T10:39:53.847Z,6.17
2018-06-07T10:41:57.767Z,6.97
2018-06-07T10:44:01.313Z,6.03
2018-06-07T10:46:04.910Z,6.80
2018-06-07T10:48:08.539Z,6.67
2018-06-07T10:50:12.177Z,5.83
2018-06-07T10:52:17.295Z,5.73
2018-06-07T10:54:21.334Z,5.70
2018-06-07T10:56:25.288Z,5.17
2018-06-07T10:58:29.103Z,5.10
2018-06-07T11:00:32.788Z,5.70
2018-06-07T11:02:36.380Z,4.93
2018-06-07T11:04:40.503Z,4.70
2018-06-07T11:06:44.087Z,4.47
2018-06-07T11:08:47.616Z,4.63
2018-06-07T11:10:51.496Z,4.97
2018-06-07T11:12:55.844Z,4.70
2018-06-07T11:15:00.386Z,5.30
2018-06-07T11:17:04.434Z,4.80
2018-06-07T11:19:08.081Z,5.20
2018-06-07T11:21:11.703Z,5.23
2018-06-07T11:23:15.778Z,5.50
2018-06-07T11:25:19.511Z,4.87
2018-06-07T11:27:23.257Z,5.37
2018-06-07T11:29:27.006Z,5.77
2018-06-07T11:31:31.397Z,5.63
2018-06-07T11:33:36.731Z,5.30
2018-06-07T11:35:41.119Z,6.37
2018-06-07T11:37:47.651Z,5.97
2018-06-07T11:39:52.243Z,7.23
2018-06-07T11:41:57.575Z,6.80
2018-06-07T11:44:02.211Z,6.77
2018-06-07T11:46:05.954Z,5.83
2018-06-07T11:48:09.675Z,6.20
2018-06-07T11:50:13.382Z,6.40
2018-06-07T11:52:17.001Z,6.37
2018-06-07T11:54:20.741Z,6.33
2018-06-07T11:56:26.054Z,6.27
2018-06-07T11:58:29.679Z,5.70
2018-06-07T12:00:33.688Z,5.53
2018-06-07T12:02:37.955Z,5.63
2018-06-07T12:04:41.800Z,6.17
2018-06-07T12:06:46.550Z,5.97
2018-06-07T12:08:50.295Z,5.90
2018-06-07T12:10:54.086Z,5.63
2018-06-07T12:12:58.082Z,5.97
2018-06-07T12:15:01.965Z,7.20
2018-06-07T12:17:05.769Z,6.50
2018-06-07T12:19:09.554Z,6.03
2018-06-07T12:21:13.387Z,6.47
2018-06-07T12:23:17.034Z,6.40
2018-06-07T12:25:20.895Z,7.00
2018-06-07T12:27:24.741Z,7.20
2018-06-07T12:29:28.663Z,6.23
2018-06-07T12:31:32.289Z,6.47
2018-06-07T12:33:35.967Z,6.00
2018-06-07T12:35:39.761Z,6.43
2018-06-07T12:37:43.414Z,6.50
2018-06-07T12:39:47.141Z,6.03
2018-06-07T12:41:50.816Z,6.17
2018-06-07T12:43:54.634Z,6.50
2018-06-07T12:45:58.130Z,6.00
2018-06-07T12:48:01.740Z,5.53
2018-06-07T12:50:05.467Z,6.57
2018-06-07T12:52:09.045Z,6.07
2018-06-07T12:54:12.836Z,6.77
2018-06-07T12:56:16.436Z,6.63
2018-06-07T12:58:20.007Z,6.33
2018-06-07T13:00:23.836Z,6.53
2018-06-07T13:02:27.402Z,6.67
2018-06-07T13:04:31.102Z,6.13
2018-06-07T13:06:34.799Z,6.30
2018-06-07T13:08:38.275Z,6.00
2018-06-07T13:10:41.938Z,6.60
2018-06-07T13:12:45.603Z,6.10
2018-06-07T13:14:49.198Z,6.43
2018-06-07T13:16:52.799Z,6.10
2018-06-07T13:18:56.465Z,5.77
2018-06-07T13:21:00.208Z,6.17
2018-06-07T13:23:03.837Z,6.27
2018-06-07T13:25:07.492Z,5.93
2018-06-07T13:27:11.176Z,6.63
2018-06-07T13:29:14.773Z,6.10
2018-06-07T13:31:19.009Z,6.23
2018-06-07T13:33:23.917Z,6.57
2018-06-07T13:35:27.668Z,6.47
2018-06-07T13:37:31.748Z,6.57
2018-06-07T13:39:35.967Z,6.63
2018-06-07T13:41:39.748Z,6.97
2018-06-07T13:43:44.051Z,7.17
2018-06-07T13:45:47.938Z,7.77
2018-06-07T13:47:51.961Z,7.70
2018-06-07T13:49:56.004Z,7.03
2018-06-07T13:51:59.674Z,6.50
2018-06-07T13:54:03.345Z,6.67
2018-06-07T13:56:07.019Z,6.70
2018-06-07T13:58:10.787Z,6.73
2018-06-07T14:00:14.660Z,7.10
2018-06-07T14:02:18.419Z,7.27
2018-06-07T14:04:22.488Z,7.17
2018-06-07T14:06:26.308Z,7.13
2018-06-07T14:08:30.912Z,7.07
2018-06-07T14:10:34.878Z,7.50
2018-06-07T14:12:39.470Z,7.33
2018-06-07T14:14:43.415Z,8.20
2018-06-07T14:16:47.327Z,7.70
2018-06-07T14:18:51.075Z,7.30
2018-06-07T14:20:54.817Z,8.37
2018-06-07T14:22:59.108Z,8.33
2018-06-07T14:25:03.019Z,8.47
2018-06-07T14:27:06.730Z,8.70
2018-06-07T14:29:10.780Z,7.83
2018-06-07T14:31:14.913Z,7.83
2018-06-07T14:33:18.785Z,8.53
2018-06-07T14:35:23.284Z,8.57
2018-06-07T14:37:28.137Z,8.80
2018-06-07T14:39:32.348Z,8.97
2018-06-07T14:41:36.540Z,9.10
2018-06-07T14:43:40.714Z,9.33
2018-06-07T14:45:44.943Z,9.20
2018-06-07T14:47:48.827Z,9.40
2018-06-07T14:49:54.139Z,8.40
2018-06-07T14:51:58.193Z,8.23
2018-06-07T14:54:02.206Z,8.27
2018-06-07T14:56:06.320Z,9.10
2018-06-07T14:58:10.188Z,9.50
2018-06-07T15:00:13.832Z,8.80
2018-06-07T15:02:17.710Z,8.30
2018-06-07T15:04:22.073Z,8.13
2018-06-07T15:06:25.762Z,9.13
2018-06-07T15:08:29.348Z,8.87
2018-06-07T15:10:33.040Z,8.67
2018-06-07T15:12:36.696Z,8.53
2018-06-07T15:14:40.351Z,9.07
2018-06-07T15:16:43.948Z,8.63
2018-06-07T15:18:47.862Z,8.33
2018-06-07T15:20:51.820Z,8.33
2018-06-07T15:22:55.721Z,9.97
2018-06-07T15:24:59.771Z,9.23
2018-06-07T15:27:03.453Z,9.63
2018-06-07T15:29:07.096Z,9.40
2018-06-07T15:31:10.973Z,9.93
2018-06-07T15:33:14.672Z,9.27
2018-06-07T15:35:18.670Z,9.90
2018-06-07T15:37:22.374Z,9.27
2018-06-07T15:39:26.139Z,9.90
2018-06-07T15:41:29.782Z,9.33
2018-06-07T15:43:33.568Z,9.20
2018-06-07T15:45:37.255Z,8.83
2018-06-07T15:47:40.959Z,9.47
2018-06-07T15:49:44.860Z,8.37
2018-06-07T15:51:48.712Z,8.67
2018-06-07T15:53:52.507Z,9.87
2018-06-07T15:55:56.579Z,9.93
2018-06-07T15:58:00.270Z,9.27
2018-06-07T16:00:04.016Z,8.77
2018-06-07T16:02:07.877Z,9.23
2018-06-07T16:04:11.730Z,8.60
2018-06-07T16:06:15.422Z,8.80
2018-06-07T16:08:19.283Z,8.93
2018-06-07T16:10:22.930Z,8.80
2018-06-07T16:12:26.617Z,9.40
2018-06-07T16:14:30.471Z,8.50
2018-06-07T16:16:34.216Z,9.10
2018-06-07T16:18:37.978Z,9.07
2018-06-07T16:20:41.975Z,9.07
2018-06-07T16:22:45.595Z,8.53
2018-06-07T16:24:49.224Z,9.80
2018-06-07T16:26:52.870Z,8.80
2018-06-07T16:28:56.557Z,9.37
2018-06-07T16:31:00.398Z,9.83
2018-06-07T16:33:04.280Z,9.73
2018-06-07T16:35:08.022Z,9.27
2018-06-07T16:37:11.590Z,8.87
2018-06-07T16:39:15.289Z,10.10
2018-06-07T16:41:18.799Z,8.83
2018-06-07T16:43:22.339Z,9.00
2018-06-07T16:45:26.124Z,10.33
2018-06-07T16:47:29.968Z,8.90
2018-06-07T16:49:33.843Z,8.73
2018-06-07T16:51:37.903Z,9.47
2018-06-07T16:53:41.952Z,9.03
2018-06-07T16:55:45.799Z,9.20
2018-06-07T16:57:49.386Z,9.67
2018-06-07T16:59:53.156Z,9.13
2018-06-07T17:01:56.885Z,8.77
2018-06-07T17:04:01.040Z,9.20
2018-06-07T17:06:05.127Z,8.43
2018-06-07T17:08:08.828Z,10.53
2018-06-07T17:10:12.562Z,9.50
2018-06-07T17:12:16.130Z,8.67
2018-06-07T17:14:19.904Z,8.90
2018-06-07T17:16:23.540Z,9.00
2018-06-07T17:18:27.519Z,9.20
2018-06-07T17:20:31.109Z,8.73
2018-06-07T17:22:35.045Z,8.70
2018-06-07T17:24:38.750Z,9.50
2018-06-07T17:26:42.369Z,9.40
2018-06-07T17:28:46.078Z,9.37
2018-06-07T17:30:49.969Z,9.90
2018-06-07T17:32:53.699Z,9.30
2018-06-07T17:34:57.353Z,9.80
2018-06-07T17:37:00.983Z,9.67
2018-06-07T17:39:07.880Z,9.63
2018-06-07T17:41:11.670Z,8.73
2018-06-07T17:43:15.331Z,9.40
2018-06-07T17:45:18.981Z,9.67
2018-06-07T17:47:22.603Z,9.60
2018-06-07T17:49:26.392Z,9.23
2018-06-07T17:51:30.110Z,10.07
2018-06-07T17:53:33.709Z,9.10
2018-06-07T17:55:37.372Z,9.47
2018-06-07T17:57:41.236Z,8.83
2018-06-07T17:59:45.014Z,10.07
2018-06-07T18:01:48.711Z,8.90
2018-06-07T18:03:52.508Z,9.03
2018-06-07T18:05:56.406Z,9.67
2018-06-07T18:08:00.017Z,8.73
2018-06-07T18:10:03.744Z,9.70
2018-06-07T18:12:07.444Z,9.50
2018-06-07T18:14:11.147Z,8.90
2018-06-07T18:16:14.894Z,9.70
2018-06-07T18:18:18.610Z,9.30
2018-06-07T18:20:22.417Z,8.67
2018-06-07T18:22:26.155Z,9.10
2018-06-07T18:24:29.872Z,8.47
2018-06-07T18:26:33.524Z,9.10
2018-06-07T18:28:37.233Z,8.47
2018-06-07T18:30:40.947Z,9.20
2018-06-07T18:32:44.758Z,9.70
2018-06-07T18:34:48.620Z,10.37
2018-06-07T18:36:52.499Z,9.57
2018-06-07T18:38:56.286Z,10.50
2018-06-07T18:41:00.040Z,9.87
2018-06-07T18:43:03.786Z,11.53
2018-06-07T18:45:07.653Z,11.43
2018-06-07T18:47:11.480Z,11.27
2018-06-07T18:49:15.161Z,10.87
2018-06-07T18:51:18.996Z,10.77
2018-06-07T18:53:22.660Z,10.87
2018-06-07T18:55:26.379Z,12.57
2018-06-07T18:57:30.164Z,11.50
2018-06-07T18:59:33.798Z,11.00
2018-06-07T19:01:37.477Z,11.73
2018-06-07T19:03:41.260Z,11.67
2018-06-07T19:05:45.087Z,10.40
2018-06-07T19:07:49.044Z,11.07
2018-06-07T19:09:58.196Z,11.17
2018-06-07T19:12:02.458Z,10.67
2018-06-07T19:14:11.413Z,10.50
2018-06-07T19:16:15.267Z,11.03
2018-06-07T19:18:19.005Z,11.10
2018-06-07T19:20:28.550Z,10.53
2018-06-07T19:22:32.315Z,10.83
2018-06-07T19:24:36.144Z,11.57
2018-06-07T19:27:46.987Z,11.57
2018-06-07T19:29:50.701Z,11.17
2018-06-07T19:31:59.685Z,11.90
2018-06-07T19:34:08.563Z,11.73
2018-06-07T19:36:12.470Z,11.97
2018-06-07T19:38:16.236Z,12.03
2018-06-07T19:40:25.076Z,12.17
2018-06-07T19:42:28.777Z,12.33
2018-06-07T19:44:32.433Z,11.10
2018-06-07T19:46:36.268Z,12.13
2018-06-07T19:48:39.987Z,13.10
2018-06-07T19:50:43.683Z,12.77
2018-06-07T19:52:47.345Z,12.93
2018-06-07T19:54:50.892Z,11.90
2018-06-07T19:56:54.902Z,12.97
2018-06-07T19:58:58.531Z,13.63
2018-06-07T20:01:02.164Z,13.30
2018-06-07T20:03:06.008Z,13.77
2018-06-07T20:05:09.788Z,14.53
2018-06-07T20:07:13.548Z,13.90
2018-06-07T20:09:17.297Z,13.57
2018-06-07T20:11:21.052Z,12.97
2018-06-07T20:13:24.823Z,13.13
2018-06-07T20:15:28.728Z,14.37
2018-06-07T20:17:32.647Z,15.43
2018-06-07T20:19:36.497Z,13.40
2018-06-07T20:21:40.146Z,13.07
2018-06-07T20:23:44.063Z,14.43
2018-06-07T20:25:46.595Z,14.13
2018-06-07T20:27:50.535Z,15.30
2018-06-07T20:29:54.154Z,15.90
2018-06-07T20:31:57.828Z,15.90
2018-06-07T20:34:01.511Z,14.60
2018-06-07T20:36:05.633Z,16.47
2018-06-07T20:38:09.334Z,16.30
2018-06-07T20:40:13.043Z,15.80
2018-06-07T20:42:16.666Z,16.73
2018-06-07T20:44:20.475Z,16.97
2018-06-07T20:46:24.153Z,16.13
2018-06-07T20:48:27.877Z,18.03
2018-06-07T20:50:31.601Z,17.17
2018-06-07T20:52:35.583Z,16.63
2018-06-07T20:54:39.471Z,15.43
2018-06-07T20:56:43.244Z,15.53
2018-06-07T20:58:47.107Z,17.53
2018-06-07T21:00:50.808Z,17.70
2018-06-07T21:02:54.584Z,17.87
2018-06-07T21:04:58.119Z,17.10
2018-06-07T21:07:01.668Z,16.13
2018-06-07T21:09:08.325Z,16.97
2018-06-07T21:11:11.868Z,16.93
2018-06-07T21:13:15.607Z,15.73
2018-06-07T21:15:19.152Z,17.73
2018-06-07T21:17:22.688Z,18.27
2018-06-07T21:19:26.255Z,18.30
2018-06-07T21:21:29.833Z,19.10
2018-06-07T21:23:33.399Z,17.70
2018-06-07T21:25:36.935Z,19.67
2018-06-07T21:27:40.506Z,19.20
2018-06-07T21:29:44.040Z,19.27
2018-06-07T21:31:47.636Z,20.87
2018-06-07T21:33:51.198Z,19.97
2018-06-07T21:35:54.791Z,21.73
2018-06-07T21:37:58.299Z,21.87
2018-06-07T21:40:01.870Z,20.70
2018-06-07T21:42:05.489Z,19.20
2018-06-07T21:44:09.014Z,21.00
2018-06-07T21:46:12.670Z,22.67
2018-06-07T21:48:16.263Z,21.87
2018-06-07T21:50:19.795Z,20.17
2018-06-07T21:52:23.369Z,20.73
2018-06-07T21:54:27.024Z,20.70
2018-06-07T21:56:30.579Z,21.20
2018-06-07T21:58:34.180Z,19.97
2018-06-07T22:00:37.986Z,19.20
2018-06-07T22:02:41.444Z,20.73
2018-06-07T22:04:45.331Z,21.37
2018-06-07T22:06:48.879Z,21.03
2018-06-07T22:08:52.421Z,21.13
2018-06-07T22:10:56.008Z,20.23
2018-06-07T22:12:59.573Z,20.87
2018-06-07T22:15:03.134Z,20.47
2018-06-07T22:17:06.687Z,20.47
2018-06-07T22:19:10.243Z,21.10
2018-06-07T22:21:13.781Z,21.07
2018-06-07T22:23:17.312Z,20.43
2018-06-07T22:25:20.917Z,21.47
2018-06-07T22:27:24.519Z,23.37
2018-06-07T22:29:28.052Z,22.10
2018-06-07T22:31:31.582Z,21.17
2018-06-07T22:33:35.161Z,22.50
2018-06-07T22:35:38.709Z,22.37
2018-06-07T22:37:42.204Z,21.53
2018-06-07T22:39:45.756Z,22.33
2018-06-07T22:41:49.324Z,23.17
2018-06-07T22:43:52.872Z,22.30
2018-06-07T22:45:56.458Z,21.33
2018-06-07T22:48:00.074Z,21.50
2018-06-07T22:50:04.044Z,22.07
2018-06-07T22:52:07.631Z,20.83
2018-06-07T22:54:11.171Z,20.97
2018-06-07T22:56:14.726Z,20.67
2018-06-07T22:58:18.288Z,20.77
2018-06-07T23:00:21.837Z,21.97
2018-06-07T23:02:25.415Z,20.67
2018-06-07T23:04:28.956Z,21.17
2018-06-07T23:06:32.504Z,21.03
2018-06-07T23:08:36.065Z,21.33
2018-06-07T23:10:39.562Z,22.50
2018-06-07T23:12:43.251Z,20.17
2018-06-07T23:14:46.791Z,19.20
2018-06-07T23:16:50.340Z,19.27
2018-06-07T23:18:53.988Z,18.20
2018-06-07T23:20:57.584Z,21.80
2018-06-07T23:23:01.186Z,20.30
2018-06-07T23:25:04.734Z,22.03
2018-06-07T23:27:08.270Z,20.97
2018-06-07T23:29:11.914Z,21.70
2018-06-07T23:31:15.422Z,21.67
2018-06-07T23:33:19.043Z,22.47
2018-06-07T23:35:22.568Z,22.47
2018-06-07T23:37:26.152Z,21.73
2018-06-07T23:39:29.673Z,22.67
2018-06-07T23:41:33.225Z,22.83
2018-06-07T23:43:36.765Z,25.00
2018-06-07T23:45:40.351Z,24.27
2018-06-07T23:47:43.915Z,25.60
2018-06-07T23:49:47.574Z,24.90
2018-06-07T23:51:51.173Z,28.20
2018-06-07T23:53:54.782Z,24.87
2018-06-07T23:55:58.418Z,25.33
2018-06-07T23:58:01.970Z,24.97
